Aviation Digital Data Service (ADDS)

Output produced by METARs form (1850 UTC 02 October 2022)
found at http://www.aviationweather.gov/metar/data/
 
METAR text: VTBS 021830Z 12004KT 9999 FEW010 27/23 Q1007 NOSIG
Conditions at: VTBS (CHON BURI/SATTAH, TH) observed 1830 UTC 02 October 2022
Temperature: 27.0°C (81°F)
Dewpoint: 23.0°C (73°F) [RH = 79%]
Pressure (altimeter): 29.73 inches Hg (1007.0 mb)
Winds: from the ESE (120 degrees) at 5 MPH (4 knots; 2.1 m/s)
Visibility: 6 or more miles (10+ km)
Ceiling: at least 12,000 feet AGL
Clouds: few clouds at 1000 feet AGL
Weather: no significant weather observed at this time

METAR text: VTBS 021800Z 10005KT 060V140 9999 FEW010 27/24 Q1008 NOSIG
Conditions at: VTBS (CHON BURI/SATTAH, TH) observed 1800 UTC 02 October 2022
Temperature: 27.0°C (81°F)
Dewpoint: 24.0°C (75°F) [RH = 84%]
Pressure (altimeter): 29.76 inches Hg (1008.0 mb)
Winds: from the E (100 degrees) at 6 MPH (5 knots; 2.6 m/s)
Visibility: 6 or more miles (10+ km)
Ceiling: at least 12,000 feet AGL
Clouds: few clouds at 1000 feet AGL
Weather: no significant weather observed at this time

METAR text: VTBS 021730Z 12005KT 100V170 9999 FEW020 27/23 Q1008 NOSIG
Conditions at: VTBS (CHON BURI/SATTAH, TH) observed 1730 UTC 02 October 2022
Temperature: 27.0°C (81°F)
Dewpoint: 23.0°C (73°F) [RH = 79%]
Pressure (altimeter): 29.76 inches Hg (1008.0 mb)
Winds: from the ESE (120 degrees) at 6 MPH (5 knots; 2.6 m/s)
Visibility: 6 or more miles (10+ km)
Ceiling: at least 12,000 feet AGL
Clouds: few clouds at 2000 feet AGL
Weather: no significant weather observed at this time

METAR text: VTBS 021700Z 10006KT 080V150 9999 FEW020 27/23 Q1008 NOSIG
Conditions at: VTBS (CHON BURI/SATTAH, TH) observed 1700 UTC 02 October 2022
Temperature: 27.0°C (81°F)
Dewpoint: 23.0°C (73°F) [RH = 79%]
Pressure (altimeter): 29.76 inches Hg (1008.0 mb)
Winds: from the E (100 degrees) at 7 MPH (6 knots; 3.1 m/s)
Visibility: 6 or more miles (10+ km)
Ceiling: at least 12,000 feet AGL
Clouds: few clouds at 2000 feet AGL
Weather: no significant weather observed at this time

METAR text: VTBS 021630Z 11005KT 070V170 9999 FEW020 27/24 Q1008 NOSIG
Conditions at: VTBS (CHON BURI/SATTAH, TH) observed 1630 UTC 02 October 2022
Temperature: 27.0°C (81°F)
Dewpoint: 24.0°C (75°F) [RH = 84%]
Pressure (altimeter): 29.76 inches Hg (1008.0 mb)
Winds: from the ESE (110 degrees) at 6 MPH (5 knots; 2.6 m/s)
Visibility: 6 or more miles (10+ km)
Ceiling: at least 12,000 feet AGL
Clouds: few clouds at 2000 feet AGL
Weather: no significant weather observed at this time

METAR text: VTBS 021600Z 11006KT 080V160 9999 FEW020 27/23 Q1009 NOSIG
Conditions at: VTBS (CHON BURI/SATTAH, TH) observed 1600 UTC 02 October 2022
Temperature: 27.0°C (81°F)
Dewpoint: 23.0°C (73°F) [RH = 79%]
Pressure (altimeter): 29.79 inches Hg (1009.0 mb)
Winds: from the ESE (110 degrees) at 7 MPH (6 knots; 3.1 m/s)
Visibility: 6 or more miles (10+ km)
Ceiling: at least 12,000 feet AGL
Clouds: few clouds at 2000 feet AGL
Weather: no significant weather observed at this time

METAR text: VTBS 021530Z 11007KT 9999 FEW020 27/24 Q1009 NOSIG
Conditions at: VTBS (CHON BURI/SATTAH, TH) observed 1530 UTC 02 October 2022
Temperature: 27.0°C (81°F)
Dewpoint: 24.0°C (75°F) [RH = 84%]
Pressure (altimeter): 29.79 inches Hg (1009.0 mb)
Winds: from the ESE (110 degrees) at 8 MPH (7 knots; 3.6 m/s)
Visibility: 6 or more miles (10+ km)
Ceiling: at least 12,000 feet AGL
Clouds: few clouds at 2000 feet AGL
Weather: no significant weather observed at this time

METAR text: VTBS 021500Z 11006KT 080V160 9999 FEW010 28/24 Q1009 NOSIG
Conditions at: VTBS (CHON BURI/SATTAH, TH) observed 1500 UTC 02 October 2022
Temperature: 28.0°C (82°F)
Dewpoint: 24.0°C (75°F) [RH = 79%]
Pressure (altimeter): 29.79 inches Hg (1009.0 mb)
Winds: from the ESE (110 degrees) at 7 MPH (6 knots; 3.1 m/s)
Visibility: 6 or more miles (10+ km)
Ceiling: at least 12,000 feet AGL
Clouds: few clouds at 1000 feet AGL
Weather: no significant weather observed at this time

METAR text: VTBS 021430Z 11009KT 9999 FEW010 28/24 Q1009 NOSIG
Conditions at: VTBS (CHON BURI/SATTAH, TH) observed 1430 UTC 02 October 2022
Temperature: 28.0°C (82°F)
Dewpoint: 24.0°C (75°F) [RH = 79%]
Pressure (altimeter): 29.79 inches Hg (1009.0 mb)
Winds: from the ESE (110 degrees) at 10 MPH (9 knots; 4.6 m/s)
Visibility: 6 or more miles (10+ km)
Ceiling: at least 12,000 feet AGL
Clouds: few clouds at 1000 feet AGL
Weather: no significant weather observed at this time

METAR text: VTBS 021400Z 10009KT 080V140 9999 FEW010 28/25 Q1008 NOSIG
Conditions at: VTBS (CHON BURI/SATTAH, TH) observed 1400 UTC 02 October 2022
Temperature: 28.0°C (82°F)
Dewpoint: 25.0°C (77°F) [RH = 84%]
Pressure (altimeter): 29.76 inches Hg (1008.0 mb)
Winds: from the E (100 degrees) at 10 MPH (9 knots; 4.6 m/s)
Visibility: 6 or more miles (10+ km)
Ceiling: at least 12,000 feet AGL
Clouds: few clouds at 1000 feet AGL
Weather: no significant weather observed at this time

METAR text: VTBS 021330Z 10008KT 9999 FEW020 28/24 Q1008 NOSIG
Conditions at: VTBS (CHON BURI/SATTAH, TH) observed 1330 UTC 02 October 2022
Temperature: 28.0°C (82°F)
Dewpoint: 24.0°C (75°F) [RH = 79%]
Pressure (altimeter): 29.76 inches Hg (1008.0 mb)
Winds: from the E (100 degrees) at 9 MPH (8 knots; 4.1 m/s)
Visibility: 6 or more miles (10+ km)
Ceiling: at least 12,000 feet AGL
Clouds: few clouds at 2000 feet AGL
Weather: no significant weather observed at this time

METAR text: VTBS 021300Z 12008KT 100V160 9999 FEW020 29/25 Q1007 NOSIG
Conditions at: VTBS (CHON BURI/SATTAH, TH) observed 1300 UTC 02 October 2022
Temperature: 29.0°C (84°F)
Dewpoint: 25.0°C (77°F) [RH = 79%]
Pressure (altimeter): 29.73 inches Hg (1007.0 mb)
Winds: from the ESE (120 degrees) at 9 MPH (8 knots; 4.1 m/s)
Visibility: 6 or more miles (10+ km)
Ceiling: at least 12,000 feet AGL
Clouds: few clouds at 2000 feet AGL
Weather: no significant weather observed at this time

METAR text: VTBS 021230Z 11007KT 080V180 9999 -RA FEW015 SCT035 29/25 Q1007 NOSIG
Conditions at: VTBS (CHON BURI/SATTAH, TH) observed 1230 UTC 02 October 2022
Temperature: 29.0°C (84°F)
Dewpoint: 25.0°C (77°F) [RH = 79%]
Pressure (altimeter): 29.73 inches Hg (1007.0 mb)
Winds: from the ESE (110 degrees) at 8 MPH (7 knots; 3.6 m/s)
Visibility: 6 or more miles (10+ km)
Ceiling: at least 12,000 feet AGL
Clouds: few clouds at 1500 feet AGL
scattered clouds at 3500 feet AGL
Weather: -RA  (light rain)

METAR text: VTBS 021200Z 11006KT 9999 -RA FEW020CB BKN035 29/24 Q1007 NOSIG
Conditions at: VTBS (CHON BURI/SATTAH, TH) observed 1200 UTC 02 October 2022
Temperature: 29.0°C (84°F)
Dewpoint: 24.0°C (75°F) [RH = 74%]
Pressure (altimeter): 29.73 inches Hg (1007.0 mb)
Winds: from the ESE (110 degrees) at 7 MPH (6 knots; 3.1 m/s)
Visibility: 6 or more miles (10+ km)
Ceiling: 3500 feet AGL
Clouds: few clouds at 2000 feet AGL
broken clouds at 3500 feet AGL
Weather: -RA  (light rain)

METAR text: VTBS 021130Z 10005KT 080V160 9999 -RA FEW020CB BKN035 30/25 Q1006 NOSIG
Conditions at: VTBS (CHON BURI/SATTAH, TH) observed 1130 UTC 02 October 2022
Temperature: 30.0°C (86°F)
Dewpoint: 25.0°C (77°F) [RH = 75%]
Pressure (altimeter): 29.70 inches Hg (1006.0 mb)
Winds: from the E (100 degrees) at 6 MPH (5 knots; 2.6 m/s)
Visibility: 6 or more miles (10+ km)
Ceiling: 3500 feet AGL
Clouds: few clouds at 2000 feet AGL
broken clouds at 3500 feet AGL
Weather: -RA  (light rain)

METAR text: VTBS 021100Z 10005KT 080V160 9999 -RA FEW020CB BKN035 30/24 Q1006 NOSIG
Conditions at: VTBS (CHON BURI/SATTAH, TH) observed 1100 UTC 02 October 2022
Temperature: 30.0°C (86°F)
Dewpoint: 24.0°C (75°F) [RH = 70%]
Pressure (altimeter): 29.70 inches Hg (1006.0 mb)
Winds: from the E (100 degrees) at 6 MPH (5 knots; 2.6 m/s)
Visibility: 6 or more miles (10+ km)
Ceiling: 3500 feet AGL
Clouds: few clouds at 2000 feet AGL
broken clouds at 3500 feet AGL
Weather: -RA  (light rain)

METAR text: VTBS 021030Z 09006KT 070V150 9999 -RA FEW020CB BKN035 30/24 Q1005 NOSIG
Conditions at: VTBS (CHON BURI/SATTAH, TH) observed 1030 UTC 02 October 2022
Temperature: 30.0°C (86°F)
Dewpoint: 24.0°C (75°F) [RH = 70%]
Pressure (altimeter): 29.68 inches Hg (1005.0 mb)
Winds: from the E (90 degrees) at 7 MPH (6 knots; 3.1 m/s)
Visibility: 6 or more miles (10+ km)
Ceiling: 3500 feet AGL
Clouds: few clouds at 2000 feet AGL
broken clouds at 3500 feet AGL
Weather: -RA  (light rain)

METAR text: VTBS 021000Z 09007KT 070V150 9999 FEW020CB BKN035 30/24 Q1005 NOSIG
Conditions at: VTBS (CHON BURI/SATTAH, TH) observed 1000 UTC 02 October 2022
Temperature: 30.0°C (86°F)
Dewpoint: 24.0°C (75°F) [RH = 70%]
Pressure (altimeter): 29.68 inches Hg (1005.0 mb)
Winds: from the E (90 degrees) at 8 MPH (7 knots; 3.6 m/s)
Visibility: 6 or more miles (10+ km)
Ceiling: 3500 feet AGL
Clouds: few clouds at 2000 feet AGL
broken clouds at 3500 feet AGL
Weather: no significant weather observed at this time

METAR text: VTBS 020930Z 11006KT 080V150 9999 FEW020 SCT035 30/24 Q1005 NOSIG
Conditions at: VTBS (CHON BURI/SATTAH, TH) observed 0930 UTC 02 October 2022
Temperature: 30.0°C (86°F)
Dewpoint: 24.0°C (75°F) [RH = 70%]
Pressure (altimeter): 29.68 inches Hg (1005.0 mb)
Winds: from the ESE (110 degrees) at 7 MPH (6 knots; 3.1 m/s)
Visibility: 6 or more miles (10+ km)
Ceiling: at least 12,000 feet AGL
Clouds: few clouds at 2000 feet AGL
scattered clouds at 3500 feet AGL
Weather: no significant weather observed at this time

METAR text: VTBS 020900Z 09006KT 040V130 9999 FEW020 SCT035 31/24 Q1005 NOSIG
Conditions at: VTBS (CHON BURI/SATTAH, TH) observed 0900 UTC 02 October 2022
Temperature: 31.0°C (88°F)
Dewpoint: 24.0°C (75°F) [RH = 66%]
Pressure (altimeter): 29.68 inches Hg (1005.0 mb)
Winds: from the E (90 degrees) at 7 MPH (6 knots; 3.1 m/s)
Visibility: 6 or more miles (10+ km)
Ceiling: at least 12,000 feet AGL
Clouds: few clouds at 2000 feet AGL
scattered clouds at 3500 feet AGL
Weather: no significant weather observed at this time

METAR text: VTBS 020830Z 09006KT 070V130 9999 FEW020 SCT035 31/24 Q1004 NOSIG
Conditions at: VTBS (CHON BURI/SATTAH, TH) observed 0830 UTC 02 October 2022
Temperature: 31.0°C (88°F)
Dewpoint: 24.0°C (75°F) [RH = 66%]
Pressure (altimeter): 29.65 inches Hg (1004.0 mb)
Winds: from the E (90 degrees) at 7 MPH (6 knots; 3.1 m/s)
Visibility: 6 or more miles (10+ km)
Ceiling: at least 12,000 feet AGL
Clouds: few clouds at 2000 feet AGL
scattered clouds at 3500 feet AGL
Weather: no significant weather observed at this time

METAR text: VTBS 020800Z 10005KT 050V160 9999 FEW020 SCT035 31/24 Q1005 NOSIG
Conditions at: VTBS (CHON BURI/SATTAH, TH) observed 0800 UTC 02 October 2022
Temperature: 31.0°C (88°F)
Dewpoint: 24.0°C (75°F) [RH = 66%]
Pressure (altimeter): 29.68 inches Hg (1005.0 mb)
Winds: from the E (100 degrees) at 6 MPH (5 knots; 2.6 m/s)
Visibility: 6 or more miles (10+ km)
Ceiling: at least 12,000 feet AGL
Clouds: few clouds at 2000 feet AGL
scattered clouds at 3500 feet AGL
Weather: no significant weather observed at this time

METAR text: VTBS 020730Z 11004KT 070V160 9999 FEW020 32/24 Q1005 NOSIG
Conditions at: VTBS (CHON BURI/SATTAH, TH) observed 0730 UTC 02 October 2022
Temperature: 32.0°C (90°F)
Dewpoint: 24.0°C (75°F) [RH = 63%]
Pressure (altimeter): 29.68 inches Hg (1005.0 mb)
Winds: from the ESE (110 degrees) at 5 MPH (4 knots; 2.1 m/s)
Visibility: 6 or more miles (10+ km)
Ceiling: at least 12,000 feet AGL
Clouds: few clouds at 2000 feet AGL
Weather: no significant weather observed at this time

METAR text: VTBS 020700Z 10006KT 060V140 9999 FEW020 31/24 Q1005 NOSIG
Conditions at: VTBS (CHON BURI/SATTAH, TH) observed 0700 UTC 02 October 2022
Temperature: 31.0°C (88°F)
Dewpoint: 24.0°C (75°F) [RH = 66%]
Pressure (altimeter): 29.68 inches Hg (1005.0 mb)
Winds: from the E (100 degrees) at 7 MPH (6 knots; 3.1 m/s)
Visibility: 6 or more miles (10+ km)
Ceiling: at least 12,000 feet AGL
Clouds: few clouds at 2000 feet AGL
Weather: no significant weather observed at this time

METAR text: VTBS 020630Z 11006KT 080V160 9999 FEW020 SCT035 31/24 Q1006 NOSIG
Conditions at: VTBS (CHON BURI/SATTAH, TH) observed 0630 UTC 02 October 2022
Temperature: 31.0°C (88°F)
Dewpoint: 24.0°C (75°F) [RH = 66%]
Pressure (altimeter): 29.70 inches Hg (1006.0 mb)
Winds: from the ESE (110 degrees) at 7 MPH (6 knots; 3.1 m/s)
Visibility: 6 or more miles (10+ km)
Ceiling: at least 12,000 feet AGL
Clouds: few clouds at 2000 feet AGL
scattered clouds at 3500 feet AGL
Weather: no significant weather observed at this time

METAR text: VTBS 020600Z VRB02KT 9999 FEW020 SCT035 32/22 Q1007 NOSIG
Conditions at: VTBS (CHON BURI/SATTAH, TH) observed 0600 UTC 02 October 2022
Temperature: 32.0°C (90°F)
Dewpoint: 22.0°C (72°F) [RH = 56%]
Pressure (altimeter): 29.73 inches Hg (1007.0 mb)
Winds: variable direction winds at 2 MPH (2 knots; 1.0 m/s)
Visibility: 6 or more miles (10+ km)
Ceiling: at least 12,000 feet AGL
Clouds: few clouds at 2000 feet AGL
scattered clouds at 3500 feet AGL
Weather: no significant weather observed at this time

METAR text: VTBS 020530Z VRB02KT 9999 FEW020 SCT035 32/23 Q1007 NOSIG
Conditions at: VTBS (CHON BURI/SATTAH, TH) observed 0530 UTC 02 October 2022
Temperature: 32.0°C (90°F)
Dewpoint: 23.0°C (73°F) [RH = 59%]
Pressure (altimeter): 29.73 inches Hg (1007.0 mb)
Winds: variable direction winds at 2 MPH (2 knots; 1.0 m/s)
Visibility: 6 or more miles (10+ km)
Ceiling: at least 12,000 feet AGL
Clouds: few clouds at 2000 feet AGL
scattered clouds at 3500 feet AGL
Weather: no significant weather observed at this time

METAR text: VTBS 020500Z VRB02KT 9999 FEW020 SCT035 31/22 Q1008 NOSIG
Conditions at: VTBS (CHON BURI/SATTAH, TH) observed 0500 UTC 02 October 2022
Temperature: 31.0°C (88°F)
Dewpoint: 22.0°C (72°F) [RH = 59%]
Pressure (altimeter): 29.76 inches Hg (1008.0 mb)
Winds: variable direction winds at 2 MPH (2 knots; 1.0 m/s)
Visibility: 6 or more miles (10+ km)
Ceiling: at least 12,000 feet AGL
Clouds: few clouds at 2000 feet AGL
scattered clouds at 3500 feet AGL
Weather: no significant weather observed at this time

METAR text: VTBS 020430Z VRB02KT 9999 FEW020 SCT035 31/23 Q1009 NOSIG
Conditions at: VTBS (CHON BURI/SATTAH, TH) observed 0430 UTC 02 October 2022
Temperature: 31.0°C (88°F)
Dewpoint: 23.0°C (73°F) [RH = 63%]
Pressure (altimeter): 29.79 inches Hg (1009.0 mb)
Winds: variable direction winds at 2 MPH (2 knots; 1.0 m/s)
Visibility: 6 or more miles (10+ km)
Ceiling: at least 12,000 feet AGL
Clouds: few clouds at 2000 feet AGL
scattered clouds at 3500 feet AGL
Weather: no significant weather observed at this time

METAR text: VTBS 020400Z VRB01KT 9999 FEW020 SCT045 31/23 Q1009 NOSIG
Conditions at: VTBS (CHON BURI/SATTAH, TH) observed 0400 UTC 02 October 2022
Temperature: 31.0°C (88°F)
Dewpoint: 23.0°C (73°F) [RH = 63%]
Pressure (altimeter): 29.79 inches Hg (1009.0 mb)
Winds: variable direction winds at 1 MPH (1 knots; 0.5 m/s)
Visibility: 6 or more miles (10+ km)
Ceiling: at least 12,000 feet AGL
Clouds: few clouds at 2000 feet AGL
scattered clouds at 4500 feet AGL
Weather: no significant weather observed at this time

METAR text: VTBS 020330Z VRB02KT 9999 FEW020 SCT045 30/23 Q1010 NOSIG
Conditions at: VTBS (CHON BURI/SATTAH, TH) observed 0330 UTC 02 October 2022
Temperature: 30.0°C (86°F)
Dewpoint: 23.0°C (73°F) [RH = 66%]
Pressure (altimeter): 29.82 inches Hg (1010.0 mb)
Winds: variable direction winds at 2 MPH (2 knots; 1.0 m/s)
Visibility: 6 or more miles (10+ km)
Ceiling: at least 12,000 feet AGL
Clouds: few clouds at 2000 feet AGL
scattered clouds at 4500 feet AGL
Weather: no significant weather observed at this time

METAR text: VTBS 020300Z VRB02KT 9999 FEW020 SCT045 29/23 Q1010 NOSIG
Conditions at: VTBS (CHON BURI/SATTAH, TH) observed 0300 UTC 02 October 2022
Temperature: 29.0°C (84°F)
Dewpoint: 23.0°C (73°F) [RH = 70%]
Pressure (altimeter): 29.82 inches Hg (1010.0 mb)
Winds: variable direction winds at 2 MPH (2 knots; 1.0 m/s)
Visibility: 6 or more miles (10+ km)
Ceiling: at least 12,000 feet AGL
Clouds: few clouds at 2000 feet AGL
scattered clouds at 4500 feet AGL
Weather: no significant weather observed at this time

METAR text: VTBS 020230Z 02003KT 330V090 9999 FEW020 29/23 Q1010 NOSIG
Conditions at: VTBS (CHON BURI/SATTAH, TH) observed 0230 UTC 02 October 2022
Temperature: 29.0°C (84°F)
Dewpoint: 23.0°C (73°F) [RH = 70%]
Pressure (altimeter): 29.82 inches Hg (1010.0 mb)
Winds: from the NNE (20 degrees) at 3 MPH (3 knots; 1.5 m/s)
Visibility: 6 or more miles (10+ km)
Ceiling: at least 12,000 feet AGL
Clouds: few clouds at 2000 feet AGL
Weather: no significant weather observed at this time

METAR text: VTBS 020200Z VRB02KT 9999 FEW020 29/23 Q1010 NOSIG
Conditions at: VTBS (CHON BURI/SATTAH, TH) observed 0200 UTC 02 October 2022
Temperature: 29.0°C (84°F)
Dewpoint: 23.0°C (73°F) [RH = 70%]
Pressure (altimeter): 29.82 inches Hg (1010.0 mb)
Winds: variable direction winds at 2 MPH (2 knots; 1.0 m/s)
Visibility: 6 or more miles (10+ km)
Ceiling: at least 12,000 feet AGL
Clouds: few clouds at 2000 feet AGL
Weather: no significant weather observed at this time

METAR text: VTBS 020130Z VRB01KT 9999 FEW020 28/23 Q1009 NOSIG
Conditions at: VTBS (CHON BURI/SATTAH, TH) observed 0130 UTC 02 October 2022
Temperature: 28.0°C (82°F)
Dewpoint: 23.0°C (73°F) [RH = 74%]
Pressure (altimeter): 29.79 inches Hg (1009.0 mb)
Winds: variable direction winds at 1 MPH (1 knots; 0.5 m/s)
Visibility: 6 or more miles (10+ km)
Ceiling: at least 12,000 feet AGL
Clouds: few clouds at 2000 feet AGL
Weather: no significant weather observed at this time

METAR text: VTBS 020100Z VRB01KT 9999 FEW020 28/24 Q1009 NOSIG
Conditions at: VTBS (CHON BURI/SATTAH, TH) observed 0100 UTC 02 October 2022
Temperature: 28.0°C (82°F)
Dewpoint: 24.0°C (75°F) [RH = 79%]
Pressure (altimeter): 29.79 inches Hg (1009.0 mb)
Winds: variable direction winds at 1 MPH (1 knots; 0.5 m/s)
Visibility: 6 or more miles (10+ km)
Ceiling: at least 12,000 feet AGL
Clouds: few clouds at 2000 feet AGL
Weather: no significant weather observed at this time

METAR text: VTBS 020030Z VRB02KT 9999 FEW020 27/24 Q1008 NOSIG
Conditions at: VTBS (CHON BURI/SATTAH, TH) observed 0030 UTC 02 October 2022
Temperature: 27.0°C (81°F)
Dewpoint: 24.0°C (75°F) [RH = 84%]
Pressure (altimeter): 29.76 inches Hg (1008.0 mb)
Winds: variable direction winds at 2 MPH (2 knots; 1.0 m/s)
Visibility: 6 or more miles (10+ km)
Ceiling: at least 12,000 feet AGL
Clouds: few clouds at 2000 feet AGL
Weather: no significant weather observed at this time

METAR text: VTBS 020000Z VRB02KT 9999 FEW020 26/24 Q1008 NOSIG
Conditions at: VTBS (CHON BURI/SATTAH, TH) observed 0000 UTC 02 October 2022
Temperature: 26.0°C (79°F)
Dewpoint: 24.0°C (75°F) [RH = 89%]
Pressure (altimeter): 29.76 inches Hg (1008.0 mb)
Winds: variable direction winds at 2 MPH (2 knots; 1.0 m/s)
Visibility: 6 or more miles (10+ km)
Ceiling: at least 12,000 feet AGL
Clouds: few clouds at 2000 feet AGL
Weather: no significant weather observed at this time

METAR text: VTBS 012330Z 00000KT 9999 FEW020 26/24 Q1008 NOSIG
Conditions at: VTBS (CHON BURI/SATTAH, TH) observed 2330 UTC 01 October 2022
Temperature: 26.0°C (79°F)
Dewpoint: 24.0°C (75°F) [RH = 89%]
Pressure (altimeter): 29.76 inches Hg (1008.0 mb)
Winds: calm
Visibility: 6 or more miles (10+ km)
Ceiling: at least 12,000 feet AGL
Clouds: few clouds at 2000 feet AGL
Weather: no significant weather observed at this time

METAR text: VTBS 012300Z 08002KT 9999 FEW020 SCT060 26/24 Q1007 NOSIG
Conditions at: VTBS (CHON BURI/SATTAH, TH) observed 2300 UTC 01 October 2022
Temperature: 26.0°C (79°F)
Dewpoint: 24.0°C (75°F) [RH = 89%]
Pressure (altimeter): 29.73 inches Hg (1007.0 mb)
Winds: from the E (80 degrees) at 2 MPH (2 knots; 1.0 m/s)
Visibility: 6 or more miles (10+ km)
Ceiling: at least 12,000 feet AGL
Clouds: few clouds at 2000 feet AGL
scattered clouds at 6000 feet AGL
Weather: no significant weather observed at this time

METAR text: VTBS 012230Z 18001KT 9999 FEW020 SCT060 26/24 Q1007 NOSIG
Conditions at: VTBS (CHON BURI/SATTAH, TH) observed 2230 UTC 01 October 2022
Temperature: 26.0°C (79°F)
Dewpoint: 24.0°C (75°F) [RH = 89%]
Pressure (altimeter): 29.73 inches Hg (1007.0 mb)
Winds: from the S (180 degrees) at 1 MPH (1 knots; 0.5 m/s)
Visibility: 6 or more miles (10+ km)
Ceiling: at least 12,000 feet AGL
Clouds: few clouds at 2000 feet AGL
scattered clouds at 6000 feet AGL
Weather: no significant weather observed at this time

METAR text: VTBS 012200Z 11002KT 9999 FEW020 SCT060 26/24 Q1007 NOSIG
Conditions at: VTBS (CHON BURI/SATTAH, TH) observed 2200 UTC 01 October 2022
Temperature: 26.0°C (79°F)
Dewpoint: 24.0°C (75°F) [RH = 89%]
Pressure (altimeter): 29.73 inches Hg (1007.0 mb)
Winds: from the ESE (110 degrees) at 2 MPH (2 knots; 1.0 m/s)
Visibility: 6 or more miles (10+ km)
Ceiling: at least 12,000 feet AGL
Clouds: few clouds at 2000 feet AGL
scattered clouds at 6000 feet AGL
Weather: no significant weather observed at this time

METAR text: VTBS 012130Z 09003KT 9999 FEW020 26/24 Q1007 NOSIG
Conditions at: VTBS (CHON BURI/SATTAH, TH) observed 2130 UTC 01 October 2022
Temperature: 26.0°C (79°F)
Dewpoint: 24.0°C (75°F) [RH = 89%]
Pressure (altimeter): 29.73 inches Hg (1007.0 mb)
Winds: from the E (90 degrees) at 3 MPH (3 knots; 1.5 m/s)
Visibility: 6 or more miles (10+ km)
Ceiling: at least 12,000 feet AGL
Clouds: few clouds at 2000 feet AGL
Weather: no significant weather observed at this time

METAR text: VTBS 012100Z 05002KT 9999 FEW020 26/24 Q1007 NOSIG
Conditions at: VTBS (CHON BURI/SATTAH, TH) observed 2100 UTC 01 October 2022
Temperature: 26.0°C (79°F)
Dewpoint: 24.0°C (75°F) [RH = 89%]
Pressure (altimeter): 29.73 inches Hg (1007.0 mb)
Winds: from the NE (50 degrees) at 2 MPH (2 knots; 1.0 m/s)
Visibility: 6 or more miles (10+ km)
Ceiling: at least 12,000 feet AGL
Clouds: few clouds at 2000 feet AGL
Weather: no significant weather observed at this time

METAR text: VTBS 012030Z VRB01KT 9999 FEW020 25/24 Q1007 NOSIG
Conditions at: VTBS (CHON BURI/SATTAH, TH) observed 2030 UTC 01 October 2022
Temperature: 25.0°C (77°F)
Dewpoint: 24.0°C (75°F) [RH = 94%]
Pressure (altimeter): 29.73 inches Hg (1007.0 mb)
Winds: variable direction winds at 1 MPH (1 knots; 0.5 m/s)
Visibility: 6 or more miles (10+ km)
Ceiling: at least 12,000 feet AGL
Clouds: few clouds at 2000 feet AGL
Weather: no significant weather observed at this time

METAR text: VTBS 012000Z 02002KT 9999 FEW020 25/23 Q1007 NOSIG
Conditions at: VTBS (CHON BURI/SATTAH, TH) observed 2000 UTC 01 October 2022
Temperature: 25.0°C (77°F)
Dewpoint: 23.0°C (73°F) [RH = 89%]
Pressure (altimeter): 29.73 inches Hg (1007.0 mb)
Winds: from the NNE (20 degrees) at 2 MPH (2 knots; 1.0 m/s)
Visibility: 6 or more miles (10+ km)
Ceiling: at least 12,000 feet AGL
Clouds: few clouds at 2000 feet AGL
Weather: no significant weather observed at this time

METAR text: VTBS 011930Z VRB02KT 9999 FEW020 BKN070 26/23 Q1007 NOSIG
Conditions at: VTBS (CHON BURI/SATTAH, TH) observed 1930 UTC 01 October 2022
Temperature: 26.0°C (79°F)
Dewpoint: 23.0°C (73°F) [RH = 84%]
Pressure (altimeter): 29.73 inches Hg (1007.0 mb)
Winds: variable direction winds at 2 MPH (2 knots; 1.0 m/s)
Visibility: 6 or more miles (10+ km)
Ceiling: 7000 feet AGL
Clouds: few clouds at 2000 feet AGL
broken clouds at 7000 feet AGL
Weather: no significant weather observed at this time

METAR text: VTBS 011900Z VRB01KT 9999 FEW020 24/23 Q1007 RETS NOSIG
Conditions at: VTBS (CHON BURI/SATTAH, TH) observed 1900 UTC 01 October 2022
Temperature: 24.0°C (75°F)
Dewpoint: 23.0°C (73°F) [RH = 94%]
Pressure (altimeter): 29.73 inches Hg (1007.0 mb)
Winds: variable direction winds at 1 MPH (1 knots; 0.5 m/s)
Visibility: 6 or more miles (10+ km)
Ceiling: at least 12,000 feet AGL
Clouds: few clouds at 2000 feet AGL
Weather: no significant weather observed at this time

METAR text: VTBS 011830Z 31005KT 9000 -TSRA FEW020CB BKN030 24/22 Q1008 RERA BECMG TL1900 NSW
Conditions at: VTBS (CHON BURI/SATTAH, TH) observed 1830 UTC 01 October 2022
Temperature: 24.0°C (75°F)
Dewpoint: 22.0°C (72°F) [RH = 89%]
Pressure (altimeter): 29.76 inches Hg (1008.0 mb)
Winds: from the NW (310 degrees) at 6 MPH (5 knots; 2.6 m/s)
Visibility: 6 miles ( 9 km)
Ceiling: 3000 feet AGL
Clouds: few clouds at 2000 feet AGL
broken clouds at 3000 feet AGL
Weather: -TSRA  (light rain associated with thunderstorm(s))

METAR text: VTBS 011800Z 29009KT 2000 +TSRA FEW010 SCT020CB BKN030 24/23 Q1008 TEMPO TL1830 1000 +TSRA
Conditions at: VTBS (CHON BURI/SATTAH, TH) observed 1800 UTC 01 October 2022
Temperature: 24.0°C (75°F)
Dewpoint: 23.0°C (73°F) [RH = 94%]
Pressure (altimeter): 29.76 inches Hg (1008.0 mb)
Winds: from the WNW (290 degrees) at 10 MPH (9 knots; 4.6 m/s)
Visibility: 1.24 miles (2.00 km)
Ceiling: 3000 feet AGL
Clouds: few clouds at 1000 feet AGL
scattered clouds at 2000 feet AGL
broken clouds at 3000 feet AGL
Weather: +TSRA  (heavy rain associated with thunderstorm(s))

METAR text: VTBS 011730Z 28012KT 250V310 8000 -TSRA FEW015 SCT020CB BKN040 26/22 Q1009 TEMPO TL1820 3000 TSRA
Conditions at: VTBS (CHON BURI/SATTAH, TH) observed 1730 UTC 01 October 2022
Temperature: 26.0°C (79°F)
Dewpoint: 22.0°C (72°F) [RH = 79%]
Pressure (altimeter): 29.79 inches Hg (1009.0 mb)
Winds: from the W (280 degrees) at 14 MPH (12 knots; 6.2 m/s)
Visibility: 5 miles ( 8 km)
Ceiling: 4000 feet AGL
Clouds: few clouds at 1500 feet AGL
scattered clouds at 2000 feet AGL
broken clouds at 4000 feet AGL
Weather: -TSRA  (light rain associated with thunderstorm(s))

METAR text: VTBS 011700Z 13004KT 090V190 9999 SCT020CB BKN040 28/24 Q1008 TEMPO FM1715 TL1800 23010KT 3000 TSRA
Conditions at: VTBS (CHON BURI/SATTAH, TH) observed 1700 UTC 01 October 2022
Temperature: 28.0°C (82°F)
Dewpoint: 24.0°C (75°F) [RH = 79%]
Pressure (altimeter): 29.76 inches Hg (1008.0 mb)
Winds: from the SE (130 degrees) at 5 MPH (4 knots; 2.1 m/s)
Visibility: 6 or more miles (10+ km)
Ceiling: 4000 feet AGL
Clouds: scattered clouds at 2000 feet AGL
broken clouds at 4000 feet AGL
Weather: no significant weather observed at this time

METAR text: VTBS 011630Z 10005KT 080V150 9999 FEW020CB SCT040 28/25 Q1008 TEMPO FM1715 TL1800 23010KT 3000 TSRA
Conditions at: VTBS (CHON BURI/SATTAH, TH) observed 1630 UTC 01 October 2022
Temperature: 28.0°C (82°F)
Dewpoint: 25.0°C (77°F) [RH = 84%]
Pressure (altimeter): 29.76 inches Hg (1008.0 mb)
Winds: from the E (100 degrees) at 6 MPH (5 knots; 2.6 m/s)
Visibility: 6 or more miles (10+ km)
Ceiling: at least 12,000 feet AGL
Clouds: few clouds at 2000 feet AGL
scattered clouds at 4000 feet AGL
Weather: no significant weather observed at this time

METAR text: VTBS 011600Z 13005KT 090V170 9999 FEW020CB 28/25 Q1009 NOSIG
Conditions at: VTBS (CHON BURI/SATTAH, TH) observed 1600 UTC 01 October 2022
Temperature: 28.0°C (82°F)
Dewpoint: 25.0°C (77°F) [RH = 84%]
Pressure (altimeter): 29.79 inches Hg (1009.0 mb)
Winds: from the SE (130 degrees) at 6 MPH (5 knots; 2.6 m/s)
Visibility: 6 or more miles (10+ km)
Ceiling: at least 12,000 feet AGL
Clouds: few clouds at 2000 feet AGL
Weather: no significant weather observed at this time

METAR text: VTBS 011530Z 12006KT 090V180 9999 FEW015 FEW020CB 28/25 Q1008 NOSIG
Conditions at: VTBS (CHON BURI/SATTAH, TH) observed 1530 UTC 01 October 2022
Temperature: 28.0°C (82°F)
Dewpoint: 25.0°C (77°F) [RH = 84%]
Pressure (altimeter): 29.76 inches Hg (1008.0 mb)
Winds: from the ESE (120 degrees) at 7 MPH (6 knots; 3.1 m/s)
Visibility: 6 or more miles (10+ km)
Ceiling: at least 12,000 feet AGL
Clouds: few clouds at 1500 feet AGL
few clouds at 2000 feet AGL
Weather: no significant weather observed at this time

METAR text: VTBS 011500Z 14006KT 110V180 9999 FEW020CB 29/24 Q1009 NOSIG
Conditions at: VTBS (CHON BURI/SATTAH, TH) observed 1500 UTC 01 October 2022
Temperature: 29.0°C (84°F)
Dewpoint: 24.0°C (75°F) [RH = 74%]
Pressure (altimeter): 29.79 inches Hg (1009.0 mb)
Winds: from the SE (140 degrees) at 7 MPH (6 knots; 3.1 m/s)
Visibility: 6 or more miles (10+ km)
Ceiling: at least 12,000 feet AGL
Clouds: few clouds at 2000 feet AGL
Weather: no significant weather observed at this time

METAR text: VTBS 011430Z 15006KT 9999 FEW020 29/24 Q1008 NOSIG
Conditions at: VTBS (CHON BURI/SATTAH, TH) observed 1430 UTC 01 October 2022
Temperature: 29.0°C (84°F)
Dewpoint: 24.0°C (75°F) [RH = 74%]
Pressure (altimeter): 29.76 inches Hg (1008.0 mb)
Winds: from the SSE (150 degrees) at 7 MPH (6 knots; 3.1 m/s)
Visibility: 6 or more miles (10+ km)
Ceiling: at least 12,000 feet AGL
Clouds: few clouds at 2000 feet AGL
Weather: no significant weather observed at this time

METAR text: VTBS 011400Z 17008KT 9999 FEW020 29/24 Q1008 NOSIG
Conditions at: VTBS (CHON BURI/SATTAH, TH) observed 1400 UTC 01 October 2022
Temperature: 29.0°C (84°F)
Dewpoint: 24.0°C (75°F) [RH = 74%]
Pressure (altimeter): 29.76 inches Hg (1008.0 mb)
Winds: from the S (170 degrees) at 9 MPH (8 knots; 4.1 m/s)
Visibility: 6 or more miles (10+ km)
Ceiling: at least 12,000 feet AGL
Clouds: few clouds at 2000 feet AGL
Weather: no significant weather observed at this time

METAR text: VTBS 011330Z 16007KT 9999 FEW020 29/24 Q1007 NOSIG
Conditions at: VTBS (CHON BURI/SATTAH, TH) observed 1330 UTC 01 October 2022
Temperature: 29.0°C (84°F)
Dewpoint: 24.0°C (75°F) [RH = 74%]
Pressure (altimeter): 29.73 inches Hg (1007.0 mb)
Winds: from the SSE (160 degrees) at 8 MPH (7 knots; 3.6 m/s)
Visibility: 6 or more miles (10+ km)
Ceiling: at least 12,000 feet AGL
Clouds: few clouds at 2000 feet AGL
Weather: no significant weather observed at this time

METAR text: VTBS 011300Z 18008KT 9999 FEW020 29/24 Q1007 NOSIG
Conditions at: VTBS (CHON BURI/SATTAH, TH) observed 1300 UTC 01 October 2022
Temperature: 29.0°C (84°F)
Dewpoint: 24.0°C (75°F) [RH = 74%]
Pressure (altimeter): 29.73 inches Hg (1007.0 mb)
Winds: from the S (180 degrees) at 9 MPH (8 knots; 4.1 m/s)
Visibility: 6 or more miles (10+ km)
Ceiling: at least 12,000 feet AGL
Clouds: few clouds at 2000 feet AGL
Weather: no significant weather observed at this time

METAR text: VTBS 011230Z 18006KT 9999 FEW020 29/24 Q1006 NOSIG
Conditions at: VTBS (CHON BURI/SATTAH, TH) observed 1230 UTC 01 October 2022
Temperature: 29.0°C (84°F)
Dewpoint: 24.0°C (75°F) [RH = 74%]
Pressure (altimeter): 29.70 inches Hg (1006.0 mb)
Winds: from the S (180 degrees) at 7 MPH (6 knots; 3.1 m/s)
Visibility: 6 or more miles (10+ km)
Ceiling: at least 12,000 feet AGL
Clouds: few clouds at 2000 feet AGL
Weather: no significant weather observed at this time

METAR text: VTBS 011200Z 18008KT 9999 FEW020 29/24 Q1006 NOSIG
Conditions at: VTBS (CHON BURI/SATTAH, TH) observed 1200 UTC 01 October 2022
Temperature: 29.0°C (84°F)
Dewpoint: 24.0°C (75°F) [RH = 74%]
Pressure (altimeter): 29.70 inches Hg (1006.0 mb)
Winds: from the S (180 degrees) at 9 MPH (8 knots; 4.1 m/s)
Visibility: 6 or more miles (10+ km)
Ceiling: at least 12,000 feet AGL
Clouds: few clouds at 2000 feet AGL
Weather: no significant weather observed at this time

METAR text: VTBS 011130Z 18008KT 9999 FEW020 29/24 Q1006 NOSIG
Conditions at: VTBS (CHON BURI/SATTAH, TH) observed 1130 UTC 01 October 2022
Temperature: 29.0°C (84°F)
Dewpoint: 24.0°C (75°F) [RH = 74%]
Pressure (altimeter): 29.70 inches Hg (1006.0 mb)
Winds: from the S (180 degrees) at 9 MPH (8 knots; 4.1 m/s)
Visibility: 6 or more miles (10+ km)
Ceiling: at least 12,000 feet AGL
Clouds: few clouds at 2000 feet AGL
Weather: no significant weather observed at this time

METAR text: VTBS 011100Z 19009KT 9999 FEW020 29/24 Q1005 NOSIG
Conditions at: VTBS (CHON BURI/SATTAH, TH) observed 1100 UTC 01 October 2022
Temperature: 29.0°C (84°F)
Dewpoint: 24.0°C (75°F) [RH = 74%]
Pressure (altimeter): 29.68 inches Hg (1005.0 mb)
Winds: from the S (190 degrees) at 10 MPH (9 knots; 4.6 m/s)
Visibility: 6 or more miles (10+ km)
Ceiling: at least 12,000 feet AGL
Clouds: few clouds at 2000 feet AGL
Weather: no significant weather observed at this time

METAR text: VTBS 011030Z 19010KT 9999 FEW020 30/23 Q1005 NOSIG
Conditions at: VTBS (CHON BURI/SATTAH, TH) observed 1030 UTC 01 October 2022
Temperature: 30.0°C (86°F)
Dewpoint: 23.0°C (73°F) [RH = 66%]
Pressure (altimeter): 29.68 inches Hg (1005.0 mb)
Winds: from the S (190 degrees) at 12 MPH (10 knots; 5.1 m/s)
Visibility: 6 or more miles (10+ km)
Ceiling: at least 12,000 feet AGL
Clouds: few clouds at 2000 feet AGL
Weather: no significant weather observed at this time

METAR text: VTBS 011000Z 19011KT 9999 FEW020 30/24 Q1005 NOSIG
Conditions at: VTBS (CHON BURI/SATTAH, TH) observed 1000 UTC 01 October 2022
Temperature: 30.0°C (86°F)
Dewpoint: 24.0°C (75°F) [RH = 70%]
Pressure (altimeter): 29.68 inches Hg (1005.0 mb)
Winds: from the S (190 degrees) at 13 MPH (11 knots; 5.7 m/s)
Visibility: 6 or more miles (10+ km)
Ceiling: at least 12,000 feet AGL
Clouds: few clouds at 2000 feet AGL
Weather: no significant weather observed at this time

METAR text: VTBS 010930Z 19011KT 9999 FEW020 31/23 Q1005 NOSIG
Conditions at: VTBS (CHON BURI/SATTAH, TH) observed 0930 UTC 01 October 2022
Temperature: 31.0°C (88°F)
Dewpoint: 23.0°C (73°F) [RH = 63%]
Pressure (altimeter): 29.68 inches Hg (1005.0 mb)
Winds: from the S (190 degrees) at 13 MPH (11 knots; 5.7 m/s)
Visibility: 6 or more miles (10+ km)
Ceiling: at least 12,000 feet AGL
Clouds: few clouds at 2000 feet AGL
Weather: no significant weather observed at this time

METAR text: VTBS 010900Z 19013KT 9999 FEW020 31/22 Q1005 NOSIG
Conditions at: VTBS (CHON BURI/SATTAH, TH) observed 0900 UTC 01 October 2022
Temperature: 31.0°C (88°F)
Dewpoint: 22.0°C (72°F) [RH = 59%]
Pressure (altimeter): 29.68 inches Hg (1005.0 mb)
Winds: from the S (190 degrees) at 15 MPH (13 knots; 6.7 m/s)
Visibility: 6 or more miles (10+ km)
Ceiling: at least 12,000 feet AGL
Clouds: few clouds at 2000 feet AGL
Weather: no significant weather observed at this time

METAR text: VTBS 010830Z 19013KT 9999 FEW020 SCT030 32/23 Q1005 NOSIG
Conditions at: VTBS (CHON BURI/SATTAH, TH) observed 0830 UTC 01 October 2022
Temperature: 32.0°C (90°F)
Dewpoint: 23.0°C (73°F) [RH = 59%]
Pressure (altimeter): 29.68 inches Hg (1005.0 mb)
Winds: from the S (190 degrees) at 15 MPH (13 knots; 6.7 m/s)
Visibility: 6 or more miles (10+ km)
Ceiling: at least 12,000 feet AGL
Clouds: few clouds at 2000 feet AGL
scattered clouds at 3000 feet AGL
Weather: no significant weather observed at this time

METAR text: VTBS 010800Z 19014KT 160V220 9999 FEW020 SCT035 32/24 Q1005 NOSIG
Conditions at: VTBS (CHON BURI/SATTAH, TH) observed 0800 UTC 01 October 2022
Temperature: 32.0°C (90°F)
Dewpoint: 24.0°C (75°F) [RH = 63%]
Pressure (altimeter): 29.68 inches Hg (1005.0 mb)
Winds: from the S (190 degrees) at 16 MPH (14 knots; 7.2 m/s)
Visibility: 6 or more miles (10+ km)
Ceiling: at least 12,000 feet AGL
Clouds: few clouds at 2000 feet AGL
scattered clouds at 3500 feet AGL
Weather: no significant weather observed at this time

METAR text: VTBS 010730Z 19015KT 9999 FEW020 SCT035 31/23 Q1005 NOSIG
Conditions at: VTBS (CHON BURI/SATTAH, TH) observed 0730 UTC 01 October 2022
Temperature: 31.0°C (88°F)
Dewpoint: 23.0°C (73°F) [RH = 63%]
Pressure (altimeter): 29.68 inches Hg (1005.0 mb)
Winds: from the S (190 degrees) at 17 MPH (15 knots; 7.7 m/s)
Visibility: 6 or more miles (10+ km)
Ceiling: at least 12,000 feet AGL
Clouds: few clouds at 2000 feet AGL
scattered clouds at 3500 feet AGL
Weather: no significant weather observed at this time

METAR text: VTBS 010700Z 19011KT 9999 FEW020 SCT035 31/24 Q1006 NOSIG
Conditions at: VTBS (CHON BURI/SATTAH, TH) observed 0700 UTC 01 October 2022
Temperature: 31.0°C (88°F)
Dewpoint: 24.0°C (75°F) [RH = 66%]
Pressure (altimeter): 29.70 inches Hg (1006.0 mb)
Winds: from the S (190 degrees) at 13 MPH (11 knots; 5.7 m/s)
Visibility: 6 or more miles (10+ km)
Ceiling: at least 12,000 feet AGL
Clouds: few clouds at 2000 feet AGL
scattered clouds at 3500 feet AGL
Weather: no significant weather observed at this time

Forecast for: VTBS (CHON BURI/SATTAH, TH)
Text: TAF VTBS 021700Z 0218/0324 11005KT 9999 FEW020 SCT040
Forecast period: 1800 UTC 02 October 2022 to 0000 UTC 04 October 2022
Forecast type: FROM: standard forecast or significant change
Winds: from the ESE (110 degrees) at 6 MPH (5 knots; 2.6 m/s)
Visibility: 6 or more miles (10+ km)
Ceiling: at least 12,000 feet AGL
Clouds: few clouds at 2000 feet AGL
scattered clouds at 4000 feet AGL
Weather: no significant weather forecast for this period
Text: TEMPO 0302/0308 VRB15KT 3000 TSRA FEW018CB SCT030 BKN100
Forecast period: 0200 to 0800 UTC 03 October 2022
Forecast type: TEMPORARY: The following changes expected for less than half the time period
Winds: variable direction winds at 17 MPH (15 knots; 7.7 m/s)
Visibility: 1.86 miles (2.99 km)
Ceiling: 10000 feet AGL
Clouds: few clouds at 1800 feet AGL
scattered clouds at 3000 feet AGL
broken clouds at 10000 feet AGL
Weather: TSRA  (rain associated with thunderstorm(s))
Text: TEMPO 0312/0318 VRB15KT 3000 TSRA FEW018CB SCT030 BKN100
Forecast period: 1200 to 1800 UTC 03 October 2022
Forecast type: TEMPORARY: The following changes expected for less than half the time period
Winds: variable direction winds at 17 MPH (15 knots; 7.7 m/s)
Visibility: 1.86 miles (2.99 km)
Ceiling: 10000 feet AGL
Clouds: few clouds at 1800 feet AGL
scattered clouds at 3000 feet AGL
broken clouds at 10000 feet AGL
Weather: TSRA  (rain associated with thunderstorm(s))